Terminal Aerodrome Forecast
Issued by NWS

Home | Current Version | Previous Version | Text Only | Print | Product List | Glossary On
Versions: 1 2 3 4 5 6 7 8 9 10 11 12 13 14 15 16 17 18 19 20 21 22 23 24 25
000
FTUS45 KPSR 251728
TAFPHX
TAF
KPHX 251728Z 2518/2624 18006KT P6SM SKC
     FM252100 24008KT P6SM FEW250
      TEMPO 2522/2602 26011G16KT
     FM260900 11004KT P6SM SCT250
     FM262000 23012KT P6SM SCT250=

USA.gov is the U.S. government's official web portal to all federal, state and local government web resources and services.